sensor_id;sensor_type;location;lat;lon;timestamp;temperature;humidity
23597;DHT22;40226;50.874;4.394;2023-04-24T00:00:37;9.40;99.90
23597;DHT22;40226;50.874;4.394;2023-04-24T00:03:06;9.40;99.90
23597;DHT22;40226;50.874;4.394;2023-04-24T00:05:32;9.40;99.90
23597;DHT22;40226;50.874;4.394;2023-04-24T00:07:58;9.40;99.90
23597;DHT22;40226;50.874;4.394;2023-04-24T00:10:23;9.40;99.90
23597;DHT22;40226;50.874;4.394;2023-04-24T00:12:49;9.40;99.90
23597;DHT22;40226;50.874;4.394;2023-04-24T00:15:15;9.40;99.90
23597;DHT22;40226;50.874;4.394;2023-04-24T00:17:41;9.50;99.90
23597;DHT22;40226;50.874;4.394;2023-04-24T00:20:06;9.50;99.90
23597;DHT22;40226;50.874;4.394;2023-04-24T00:22:33;9.40;99.90
23597;DHT22;40226;50.874;4.394;2023-04-24T00:24:58;9.40;99.90
23597;DHT22;40226;50.874;4.394;2023-04-24T00:27:24;9.50;99.90
23597;DHT22;40226;50.874;4.394;2023-04-24T00:29:50;9.40;99.90
23597;DHT22;40226;50.874;4.394;2023-04-24T00:32:15;9.30;99.90
23597;DHT22;40226;50.874;4.394;2023-04-24T00:34:41;9.20;99.90
23597;DHT22;40226;50.874;4.394;2023-04-24T00:37:07;9.20;99.90
23597;DHT22;40226;50.874;4.394;2023-04-24T00:39:33;9.20;99.90
23597;DHT22;40226;50.874;4.394;2023-04-24T00:41:59;9.20;99.90
23597;DHT22;40226;50.874;4.394;2023-04-24T00:44:25;9.20;99.90
23597;DHT22;40226;50.874;4.394;2023-04-24T00:46:50;9.30;99.90
23597;DHT22;40226;50.874;4.394;2023-04-24T00:49:20;9.20;99.90
23597;DHT22;40226;50.874;4.394;2023-04-24T00:51:46;9.20;99.90
23597;DHT22;40226;50.874;4.394;2023-04-24T00:54:15;9.20;99.90
23597;DHT22;40226;50.874;4.394;2023-04-24T00:56:41;9.20;99.90
23597;DHT22;40226;50.874;4.394;2023-04-24T00:59:08;9.20;99.90
23597;DHT22;40226;50.874;4.394;2023-04-24T01:01:34;9.30;99.90
23597;DHT22;40226;50.874;4.394;2023-04-24T01:04:00;9.30;99.90
23597;DHT22;40226;50.874;4.394;2023-04-24T01:06:28;9.20;99.90
23597;DHT22;40226;50.874;4.394;2023-04-24T01:08:54;9.20;99.90
23597;DHT22;40226;50.874;4.394;2023-04-24T01:11:24;9.20;99.90
23597;DHT22;40226;50.874;4.394;2023-04-24T01:13:51;9.20;99.90
23597;DHT22;40226;50.874;4.394;2023-04-24T01:16:17;9.20;99.90
23597;DHT22;40226;50.874;4.394;2023-04-24T01:18:46;9.20;99.90
23597;DHT22;40226;50.874;4.394;2023-04-24T01:21:14;9.10;99.90
23597;DHT22;40226;50.874;4.394;2023-04-24T01:23:44;9.00;99.90
23597;DHT22;40226;50.874;4.394;2023-04-24T01:26:12;8.90;99.90
23597;DHT22;40226;50.874;4.394;2023-04-24T01:28:37;8.90;99.90
23597;DHT22;40226;50.874;4.394;2023-04-24T01:31:03;8.90;99.90
23597;DHT22;40226;50.874;4.394;2023-04-24T01:33:29;8.80;99.90
23597;DHT22;40226;50.874;4.394;2023-04-24T01:35:55;8.90;99.90
23597;DHT22;40226;50.874;4.394;2023-04-24T01:38:21;8.80;99.90
23597;DHT22;40226;50.874;4.394;2023-04-24T01:40:47;8.90;99.90
23597;DHT22;40226;50.874;4.394;2023-04-24T01:43:13;8.90;99.90
23597;DHT22;40226;50.874;4.394;2023-04-24T01:45:39;8.90;99.90
23597;DHT22;40226;50.874;4.394;2023-04-24T01:48:04;8.80;99.90
23597;DHT22;40226;50.874;4.394;2023-04-24T01:50:30;8.90;99.90
23597;DHT22;40226;50.874;4.394;2023-04-24T01:52:56;8.80;99.90
23597;DHT22;40226;50.874;4.394;2023-04-24T01:55:22;8.80;99.90
23597;DHT22;40226;50.874;4.394;2023-04-24T01:57:48;8.80;99.90
23597;DHT22;40226;50.874;4.394;2023-04-24T02:00:14;8.80;99.90
23597;DHT22;40226;50.874;4.394;2023-04-24T02:02:40;8.80;99.90
23597;DHT22;40226;50.874;4.394;2023-04-24T02:05:07;8.90;99.90
23597;DHT22;40226;50.874;4.394;2023-04-24T02:07:33;8.90;99.90
23597;DHT22;40226;50.874;4.394;2023-04-24T02:09:59;8.90;99.90
23597;DHT22;40226;50.874;4.394;2023-04-24T02:12:25;8.90;99.90
23597;DHT22;40226;50.874;4.394;2023-04-24T02:14:50;8.90;99.90
23597;DHT22;40226;50.874;4.394;2023-04-24T02:17:16;8.90;99.90
23597;DHT22;40226;50.874;4.394;2023-04-24T02:19:42;8.90;99.90
23597;DHT22;40226;50.874;4.394;2023-04-24T02:22:08;8.90;99.90
23597;DHT22;40226;50.874;4.394;2023-04-24T02:24:33;8.80;99.90
23597;DHT22;40226;50.874;4.394;2023-04-24T02:26:59;8.80;99.90
23597;DHT22;40226;50.874;4.394;2023-04-24T02:29:25;8.80;99.90
23597;DHT22;40226;50.874;4.394;2023-04-24T02:31:51;8.80;99.90
23597;DHT22;40226;50.874;4.394;2023-04-24T02:34:16;8.90;99.90
23597;DHT22;40226;50.874;4.394;2023-04-24T02:36:42;8.90;99.90
23597;DHT22;40226;50.874;4.394;2023-04-24T02:39:07;8.90;99.90
23597;DHT22;40226;50.874;4.394;2023-04-24T02:41:33;8.80;99.90
23597;DHT22;40226;50.874;4.394;2023-04-24T02:43:59;8.80;99.90
23597;DHT22;40226;50.874;4.394;2023-04-24T02:46:25;8.70;99.90
23597;DHT22;40226;50.874;4.394;2023-04-24T02:48:51;8.70;99.90
23597;DHT22;40226;50.874;4.394;2023-04-24T02:51:16;8.70;99.90
23597;DHT22;40226;50.874;4.394;2023-04-24T02:53:42;8.70;99.90
23597;DHT22;40226;50.874;4.394;2023-04-24T02:56:08;8.70;99.90
23597;DHT22;40226;50.874;4.394;2023-04-24T02:58:33;8.60;99.90
23597;DHT22;40226;50.874;4.394;2023-04-24T03:00:59;8.70;99.90
23597;DHT22;40226;50.874;4.394;2023-04-24T03:03:25;8.70;99.90
23597;DHT22;40226;50.874;4.394;2023-04-24T03:05:51;8.60;99.90
23597;DHT22;40226;50.874;4.394;2023-04-24T03:08:17;8.70;99.90
23597;DHT22;40226;50.874;4.394;2023-04-24T03:10:43;8.70;99.90
23597;DHT22;40226;50.874;4.394;2023-04-24T03:13:09;8.70;99.90
23597;DHT22;40226;50.874;4.394;2023-04-24T03:15:34;8.60;99.90
23597;DHT22;40226;50.874;4.394;2023-04-24T03:18:00;8.60;99.90
23597;DHT22;40226;50.874;4.394;2023-04-24T03:20:26;8.60;99.90
23597;DHT22;40226;50.874;4.394;2023-04-24T03:22:51;8.60;99.90
23597;DHT22;40226;50.874;4.394;2023-04-24T03:25:17;8.60;99.90
23597;DHT22;40226;50.874;4.394;2023-04-24T03:27:43;8.50;99.90
23597;DHT22;40226;50.874;4.394;2023-04-24T03:30:09;8.60;99.90
23597;DHT22;40226;50.874;4.394;2023-04-24T03:32:35;8.50;99.90
23597;DHT22;40226;50.874;4.394;2023-04-24T03:35:01;8.50;99.90
23597;DHT22;40226;50.874;4.394;2023-04-24T03:37:26;8.50;99.90
23597;DHT22;40226;50.874;4.394;2023-04-24T03:39:52;8.50;99.90
23597;DHT22;40226;50.874;4.394;2023-04-24T03:42:18;8.70;99.90
23597;DHT22;40226;50.874;4.394;2023-04-24T03:44:43;8.70;99.90
23597;DHT22;40226;50.874;4.394;2023-04-24T03:47:09;8.70;99.90
23597;DHT22;40226;50.874;4.394;2023-04-24T03:49:35;8.70;99.90
23597;DHT22;40226;50.874;4.394;2023-04-24T03:52:00;8.80;99.90
23597;DHT22;40226;50.874;4.394;2023-04-24T03:54:26;8.70;99.90
23597;DHT22;40226;50.874;4.394;2023-04-24T03:56:52;9.00;99.90
23597;DHT22;40226;50.874;4.394;2023-04-24T03:59:18;8.90;99.90
23597;DHT22;40226;50.874;4.394;2023-04-24T04:01:44;9.00;99.90
23597;DHT22;40226;50.874;4.394;2023-04-24T04:04:10;8.90;99.90
23597;DHT22;40226;50.874;4.394;2023-04-24T04:06:36;9.00;99.90
23597;DHT22;40226;50.874;4.394;2023-04-24T04:09:02;9.10;99.90
23597;DHT22;40226;50.874;4.394;2023-04-24T04:11:28;9.00;99.90
23597;DHT22;40226;50.874;4.394;2023-04-24T04:13:54;9.00;99.90
23597;DHT22;40226;50.874;4.394;2023-04-24T04:16:20;8.80;99.90
23597;DHT22;40226;50.874;4.394;2023-04-24T04:18:46;8.80;99.90
23597;DHT22;40226;50.874;4.394;2023-04-24T04:21:12;8.80;99.90
23597;DHT22;40226;50.874;4.394;2023-04-24T04:23:37;8.80;99.90
23597;DHT22;40226;50.874;4.394;2023-04-24T04:26:03;8.80;99.90
23597;DHT22;40226;50.874;4.394;2023-04-24T04:28:30;8.90;99.90
23597;DHT22;40226;50.874;4.394;2023-04-24T04:30:57;8.90;99.90
23597;DHT22;40226;50.874;4.394;2023-04-24T04:33:24;9.00;99.90
23597;DHT22;40226;50.874;4.394;2023-04-24T04:35:50;9.00;99.90
23597;DHT22;40226;50.874;4.394;2023-04-24T04:38:18;9.00;99.90
23597;DHT22;40226;50.874;4.394;2023-04-24T04:40:44;9.10;99.90
23597;DHT22;40226;50.874;4.394;2023-04-24T04:43:10;9.10;99.90
23597;DHT22;40226;50.874;4.394;2023-04-24T04:45:37;9.30;99.90
23597;DHT22;40226;50.874;4.394;2023-04-24T04:48:04;9.30;99.90
23597;DHT22;40226;50.874;4.394;2023-04-24T04:50:32;9.20;99.90
23597;DHT22;40226;50.874;4.394;2023-04-24T04:52:58;9.20;99.90
23597;DHT22;40226;50.874;4.394;2023-04-24T04:55:25;9.20;99.90
23597;DHT22;40226;50.874;4.394;2023-04-24T04:57:51;9.10;99.90
23597;DHT22;40226;50.874;4.394;2023-04-24T05:00:17;9.00;99.90
23597;DHT22;40226;50.874;4.394;2023-04-24T05:02:42;9.00;99.90
23597;DHT22;40226;50.874;4.394;2023-04-24T05:05:08;9.20;99.90
23597;DHT22;40226;50.874;4.394;2023-04-24T05:07:34;9.10;99.90
23597;DHT22;40226;50.874;4.394;2023-04-24T05:10:00;9.00;99.90
23597;DHT22;40226;50.874;4.394;2023-04-24T05:12:26;9.00;99.90
23597;DHT22;40226;50.874;4.394;2023-04-24T05:14:52;8.90;99.90
23597;DHT22;40226;50.874;4.394;2023-04-24T05:17:17;8.80;99.90
23597;DHT22;40226;50.874;4.394;2023-04-24T05:19:43;8.80;99.90
23597;DHT22;40226;50.874;4.394;2023-04-24T05:22:09;8.80;99.90
23597;DHT22;40226;50.874;4.394;2023-04-24T05:24:36;8.80;99.90
23597;DHT22;40226;50.874;4.394;2023-04-24T05:27:05;8.90;99.90
23597;DHT22;40226;50.874;4.394;2023-04-24T05:29:31;8.80;99.90
23597;DHT22;40226;50.874;4.394;2023-04-24T05:31:57;8.80;99.90
23597;DHT22;40226;50.874;4.394;2023-04-24T05:34:23;8.80;99.90
23597;DHT22;40226;50.874;4.394;2023-04-24T05:36:49;8.90;99.90
23597;DHT22;40226;50.874;4.394;2023-04-24T05:39:16;8.80;99.90
23597;DHT22;40226;50.874;4.394;2023-04-24T05:41:42;8.70;99.90
23597;DHT22;40226;50.874;4.394;2023-04-24T05:44:07;8.60;99.90
23597;DHT22;40226;50.874;4.394;2023-04-24T05:46:33;8.60;99.90
23597;DHT22;40226;50.874;4.394;2023-04-24T05:48:59;8.50;99.90
23597;DHT22;40226;50.874;4.394;2023-04-24T05:51:24;8.60;99.90
23597;DHT22;40226;50.874;4.394;2023-04-24T05:53:51;8.70;99.90
23597;DHT22;40226;50.874;4.394;2023-04-24T05:56:17;8.70;99.90
23597;DHT22;40226;50.874;4.394;2023-04-24T05:58:42;8.60;99.90
23597;DHT22;40226;50.874;4.394;2023-04-24T06:01:08;8.70;99.90
23597;DHT22;40226;50.874;4.394;2023-04-24T06:03:35;8.60;99.90
23597;DHT22;40226;50.874;4.394;2023-04-24T06:06:00;8.60;99.90
23597;DHT22;40226;50.874;4.394;2023-04-24T06:08:26;8.60;99.90
23597;DHT22;40226;50.874;4.394;2023-04-24T06:10:52;8.60;99.90
23597;DHT22;40226;50.874;4.394;2023-04-24T06:13:17;8.60;99.90
23597;DHT22;40226;50.874;4.394;2023-04-24T06:15:43;8.60;99.90
23597;DHT22;40226;50.874;4.394;2023-04-24T06:18:09;8.60;99.90
23597;DHT22;40226;50.874;4.394;2023-04-24T06:20:36;8.60;99.90
23597;DHT22;40226;50.874;4.394;2023-04-24T06:23:02;8.50;99.90
23597;DHT22;40226;50.874;4.394;2023-04-24T06:25:28;8.50;99.90
23597;DHT22;40226;50.874;4.394;2023-04-24T06:27:54;8.60;99.90
23597;DHT22;40226;50.874;4.394;2023-04-24T06:30:20;8.70;99.90
23597;DHT22;40226;50.874;4.394;2023-04-24T06:32:46;8.80;99.90
23597;DHT22;40226;50.874;4.394;2023-04-24T06:35:11;8.80;99.90
23597;DHT22;40226;50.874;4.394;2023-04-24T06:37:39;8.70;99.90
23597;DHT22;40226;50.874;4.394;2023-04-24T06:40:05;8.80;99.90
23597;DHT22;40226;50.874;4.394;2023-04-24T06:42:31;8.90;99.90
23597;DHT22;40226;50.874;4.394;2023-04-24T06:44:57;8.90;99.90
23597;DHT22;40226;50.874;4.394;2023-04-24T06:47:22;8.80;99.90
23597;DHT22;40226;50.874;4.394;2023-04-24T06:49:48;8.80;99.90
23597;DHT22;40226;50.874;4.394;2023-04-24T06:52:16;8.80;99.90
23597;DHT22;40226;50.874;4.394;2023-04-24T06:54:42;8.80;99.90
23597;DHT22;40226;50.874;4.394;2023-04-24T06:57:08;8.80;99.90
23597;DHT22;40226;50.874;4.394;2023-04-24T06:59:34;8.90;99.90
23597;DHT22;40226;50.874;4.394;2023-04-24T07:02:00;8.90;99.90
23597;DHT22;40226;50.874;4.394;2023-04-24T07:04:25;8.80;99.90
23597;DHT22;40226;50.874;4.394;2023-04-24T07:06:51;8.80;99.90
23597;DHT22;40226;50.874;4.394;2023-04-24T07:09:19;8.80;99.90
23597;DHT22;40226;50.874;4.394;2023-04-24T07:11:46;8.90;99.90
23597;DHT22;40226;50.874;4.394;2023-04-24T07:14:12;8.80;99.90
23597;DHT22;40226;50.874;4.394;2023-04-24T07:16:37;9.00;99.90
23597;DHT22;40226;50.874;4.394;2023-04-24T07:19:03;8.90;99.90
23597;DHT22;40226;50.874;4.394;2023-04-24T07:21:29;9.00;99.90
23597;DHT22;40226;50.874;4.394;2023-04-24T07:23:57;9.10;99.90
23597;DHT22;40226;50.874;4.394;2023-04-24T07:26:23;9.10;99.90
23597;DHT22;40226;50.874;4.394;2023-04-24T07:28:49;9.10;99.90
23597;DHT22;40226;50.874;4.394;2023-04-24T07:31:14;9.20;99.90
23597;DHT22;40226;50.874;4.394;2023-04-24T07:33:40;9.40;99.90
23597;DHT22;40226;50.874;4.394;2023-04-24T07:36:06;9.40;99.90
23597;DHT22;40226;50.874;4.394;2023-04-24T07:38:32;9.30;99.90
23597;DHT22;40226;50.874;4.394;2023-04-24T07:40:59;9.50;99.90
23597;DHT22;40226;50.874;4.394;2023-04-24T07:43:26;9.50;99.90
23597;DHT22;40226;50.874;4.394;2023-04-24T07:45:53;9.50;99.90
23597;DHT22;40226;50.874;4.394;2023-04-24T07:48:20;9.70;99.90
23597;DHT22;40226;50.874;4.394;2023-04-24T07:50:48;9.80;99.90
23597;DHT22;40226;50.874;4.394;2023-04-24T07:53:14;9.80;99.90
23597;DHT22;40226;50.874;4.394;2023-04-24T07:55:41;9.80;99.90
23597;DHT22;40226;50.874;4.394;2023-04-24T07:58:08;9.90;99.90
23597;DHT22;40226;50.874;4.394;2023-04-24T08:00:34;10.10;99.90
23597;DHT22;40226;50.874;4.394;2023-04-24T08:03:01;10.10;99.90
23597;DHT22;40226;50.874;4.394;2023-04-24T08:05:26;10.30;99.90
23597;DHT22;40226;50.874;4.394;2023-04-24T08:07:54;10.50;99.90
23597;DHT22;40226;50.874;4.394;2023-04-24T08:10:21;10.60;99.90
23597;DHT22;40226;50.874;4.394;2023-04-24T08:12:47;10.40;99.90
23597;DHT22;40226;50.874;4.394;2023-04-24T08:15:12;10.40;99.90
23597;DHT22;40226;50.874;4.394;2023-04-24T08:17:38;10.30;99.90
23597;DHT22;40226;50.874;4.394;2023-04-24T08:20:04;10.30;99.90
23597;DHT22;40226;50.874;4.394;2023-04-24T08:22:30;10.30;99.90
23597;DHT22;40226;50.874;4.394;2023-04-24T08:24:56;10.30;99.90
23597;DHT22;40226;50.874;4.394;2023-04-24T08:27:23;10.40;99.90
23597;DHT22;40226;50.874;4.394;2023-04-24T08:29:49;10.40;99.90
23597;DHT22;40226;50.874;4.394;2023-04-24T08:32:16;10.20;99.90
23597;DHT22;40226;50.874;4.394;2023-04-24T08:34:42;10.40;99.90
23597;DHT22;40226;50.874;4.394;2023-04-24T08:37:07;10.40;99.90
23597;DHT22;40226;50.874;4.394;2023-04-24T08:39:33;10.50;99.90
23597;DHT22;40226;50.874;4.394;2023-04-24T08:41:59;10.50;99.90
23597;DHT22;40226;50.874;4.394;2023-04-24T08:44:32;10.40;99.90
23597;DHT22;40226;50.874;4.394;2023-04-24T08:46:58;10.50;99.90
23597;DHT22;40226;50.874;4.394;2023-04-24T08:49:24;10.70;99.90
23597;DHT22;40226;50.874;4.394;2023-04-24T08:51:50;10.80;99.90
23597;DHT22;40226;50.874;4.394;2023-04-24T08:54:18;10.90;99.90
23597;DHT22;40226;50.874;4.394;2023-04-24T08:56:45;10.80;99.90
23597;DHT22;40226;50.874;4.394;2023-04-24T08:59:15;11.00;99.90
23597;DHT22;40226;50.874;4.394;2023-04-24T09:01:41;11.00;99.90
23597;DHT22;40226;50.874;4.394;2023-04-24T09:04:09;11.50;99.90
23597;DHT22;40226;50.874;4.394;2023-04-24T09:06:40;11.40;99.90
23597;DHT22;40226;50.874;4.394;2023-04-24T09:09:06;11.30;99.90
23597;DHT22;40226;50.874;4.394;2023-04-24T09:11:32;11.30;99.90
23597;DHT22;40226;50.874;4.394;2023-04-24T09:13:58;11.30;99.90
23597;DHT22;40226;50.874;4.394;2023-04-24T09:16:27;11.50;99.90
23597;DHT22;40226;50.874;4.394;2023-04-24T09:18:57;11.50;99.90
23597;DHT22;40226;50.874;4.394;2023-04-24T09:21:23;11.80;99.90
23597;DHT22;40226;50.874;4.394;2023-04-24T09:24:00;11.80;99.90
23597;DHT22;40226;50.874;4.394;2023-04-24T09:26:30;11.90;99.90
23597;DHT22;40226;50.874;4.394;2023-04-24T09:28:57;12.30;99.90
23597;DHT22;40226;50.874;4.394;2023-04-24T09:31:23;12.50;99.90
23597;DHT22;40226;50.874;4.394;2023-04-24T09:34:05;12.30;99.90
23597;DHT22;40226;50.874;4.394;2023-04-24T09:36:39;12.00;98.20
23597;DHT22;40226;50.874;4.394;2023-04-24T09:39:06;11.90;99.90
23597;DHT22;40226;50.874;4.394;2023-04-24T09:41:53;11.70;99.90
23597;DHT22;40226;50.874;4.394;2023-04-24T09:44:27;12.00;99.90
23597;DHT22;40226;50.874;4.394;2023-04-24T09:47:00;11.90;99.90
23597;DHT22;40226;50.874;4.394;2023-04-24T09:49:31;12.20;99.70
23597;DHT22;40226;50.874;4.394;2023-04-24T09:52:11;12.30;99.90
23597;DHT22;40226;50.874;4.394;2023-04-24T09:54:37;12.30;92.70
23597;DHT22;40226;50.874;4.394;2023-04-24T09:57:04;12.20;7.00
23597;DHT22;40226;50.874;4.394;2023-04-24T09:59:30;12.30;6.00
23597;DHT22;40226;50.874;4.394;2023-04-24T10:01:56;12.60;6.00
23597;DHT22;40226;50.874;4.394;2023-04-24T10:04:25;12.90;1.00
23597;DHT22;40226;50.874;4.394;2023-04-24T10:06:53;12.70;1.00
23597;DHT22;40226;50.874;4.394;2023-04-24T10:09:21;12.50;1.00
23597;DHT22;40226;50.874;4.394;2023-04-24T10:11:49;12.70;1.00
23597;DHT22;40226;50.874;4.394;2023-04-24T10:14:17;13.10;1.00
23597;DHT22;40226;50.874;4.394;2023-04-24T10:16:44;13.30;1.00
23597;DHT22;40226;50.874;4.394;2023-04-24T10:19:13;13.20;1.00
23597;DHT22;40226;50.874;4.394;2023-04-24T10:21:40;13.30;1.00
23597;DHT22;40226;50.874;4.394;2023-04-24T10:24:12;13.20;1.00
23597;DHT22;40226;50.874;4.394;2023-04-24T10:26:38;12.90;1.00
23597;DHT22;40226;50.874;4.394;2023-04-24T10:29:06;13.00;1.00
23597;DHT22;40226;50.874;4.394;2023-04-24T10:31:36;13.10;1.00
23597;DHT22;40226;50.874;4.394;2023-04-24T10:34:04;12.80;1.00
23597;DHT22;40226;50.874;4.394;2023-04-24T10:36:31;12.60;1.00
23597;DHT22;40226;50.874;4.394;2023-04-24T10:38:59;12.60;1.00
23597;DHT22;40226;50.874;4.394;2023-04-24T10:41:26;13.00;1.00
23597;DHT22;40226;50.874;4.394;2023-04-24T10:44:08;13.30;1.00
23597;DHT22;40226;50.874;4.394;2023-04-24T10:46:36;13.30;99.90
23597;DHT22;40226;50.874;4.394;2023-04-24T10:49:06;13.10;1.00
23597;DHT22;40226;50.874;4.394;2023-04-24T10:51:52;13.50;1.00
23597;DHT22;40226;50.874;4.394;2023-04-24T10:54:44;13.70;99.90
23597;DHT22;40226;50.874;4.394;2023-04-24T10:59:50;13.20;99.90
23597;DHT22;40226;50.874;4.394;2023-04-24T11:02:19;13.40;99.90
23597;DHT22;40226;50.874;4.394;2023-04-24T11:05:03;13.70;99.90
23597;DHT22;40226;50.874;4.394;2023-04-24T11:07:29;13.70;99.90
23597;DHT22;40226;50.874;4.394;2023-04-24T11:10:01;13.40;99.90
23597;DHT22;40226;50.874;4.394;2023-04-24T11:12:26;13.40;99.90
23597;DHT22;40226;50.874;4.394;2023-04-24T11:17:34;13.50;99.90
23597;DHT22;40226;50.874;4.394;2023-04-24T11:20:04;13.80;99.90
23597;DHT22;40226;50.874;4.394;2023-04-24T11:22:34;14.10;99.90
23597;DHT22;40226;50.874;4.394;2023-04-24T11:25:03;14.00;1.00
23597;DHT22;40226;50.874;4.394;2023-04-24T11:27:42;14.00;1.00
23597;DHT22;40226;50.874;4.394;2023-04-24T11:30:09;13.90;22.80
23597;DHT22;40226;50.874;4.394;2023-04-24T11:32:40;14.20;1.00
23597;DHT22;40226;50.874;4.394;2023-04-24T11:35:14;14.10;18.10
23597;DHT22;40226;50.874;4.394;2023-04-24T11:37:42;14.40;1.00
23597;DHT22;40226;50.874;4.394;2023-04-24T11:40:10;14.30;99.90
23597;DHT22;40226;50.874;4.394;2023-04-24T11:42:38;14.20;1.00
23597;DHT22;40226;50.874;4.394;2023-04-24T11:45:12;14.40;99.90
23597;DHT22;40226;50.874;4.394;2023-04-24T11:47:38;14.20;1.00
23597;DHT22;40226;50.874;4.394;2023-04-24T11:50:06;14.20;99.90
23597;DHT22;40226;50.874;4.394;2023-04-24T11:52:37;14.10;99.90
23597;DHT22;40226;50.874;4.394;2023-04-24T11:55:03;14.30;1.00
23597;DHT22;40226;50.874;4.394;2023-04-24T11:57:30;14.20;99.90
23597;DHT22;40226;50.874;4.394;2023-04-24T12:00:01;14.10;99.90
23597;DHT22;40226;50.874;4.394;2023-04-24T12:02:27;13.60;2.50
23597;DHT22;40226;50.874;4.394;2023-04-24T12:04:53;13.60;99.90
23597;DHT22;40226;50.874;4.394;2023-04-24T12:07:20;13.40;99.90
23597;DHT22;40226;50.874;4.394;2023-04-24T12:09:46;13.30;1.00
23597;DHT22;40226;50.874;4.394;2023-04-24T12:12:14;13.40;1.00
23597;DHT22;40226;50.874;4.394;2023-04-24T12:14:44;13.70;99.90
23597;DHT22;40226;50.874;4.394;2023-04-24T12:17:10;14.10;99.90
23597;DHT22;40226;50.874;4.394;2023-04-24T12:19:36;14.60;99.90
23597;DHT22;40226;50.874;4.394;2023-04-24T12:22:04;15.60;1.00
23597;DHT22;40226;50.874;4.394;2023-04-24T12:24:31;16.80;99.90
23597;DHT22;40226;50.874;4.394;2023-04-24T12:26:57;17.80;1.00
23597;DHT22;40226;50.874;4.394;2023-04-24T12:29:24;18.20;99.90
23597;DHT22;40226;50.874;4.394;2023-04-24T12:31:53;18.70;1.00
23597;DHT22;40226;50.874;4.394;2023-04-24T12:34:23;17.90;1.00
23597;DHT22;40226;50.874;4.394;2023-04-24T12:36:50;17.60;1.00
23597;DHT22;40226;50.874;4.394;2023-04-24T12:39:17;17.80;1.00
23597;DHT22;40226;50.874;4.394;2023-04-24T12:41:56;19.00;1.00
23597;DHT22;40226;50.874;4.394;2023-04-24T12:44:35;20.50;99.90
23597;DHT22;40226;50.874;4.394;2023-04-24T12:47:02;21.60;1.00
23597;DHT22;40226;50.874;4.394;2023-04-24T12:49:29;21.70;99.90
23597;DHT22;40226;50.874;4.394;2023-04-24T12:51:55;22.90;99.90
23597;DHT22;40226;50.874;4.394;2023-04-24T12:54:22;23.80;99.90
23597;DHT22;40226;50.874;4.394;2023-04-24T12:56:47;22.90;1.00
23597;DHT22;40226;50.874;4.394;2023-04-24T12:59:13;22.40;1.00
23597;DHT22;40226;50.874;4.394;2023-04-24T13:01:38;21.10;1.00
23597;DHT22;40226;50.874;4.394;2023-04-24T13:04:05;19.40;1.00
23597;DHT22;40226;50.874;4.394;2023-04-24T13:06:30;18.80;1.00
23597;DHT22;40226;50.874;4.394;2023-04-24T13:08:57;17.80;1.00
23597;DHT22;40226;50.874;4.394;2023-04-24T13:11:23;16.80;99.90
23597;DHT22;40226;50.874;4.394;2023-04-24T13:13:50;16.80;99.90
23597;DHT22;40226;50.874;4.394;2023-04-24T13:16:15;16.50;1.00
23597;DHT22;40226;50.874;4.394;2023-04-24T13:18:41;16.10;6.10
23597;DHT22;40226;50.874;4.394;2023-04-24T13:21:07;16.60;69.70
23597;DHT22;40226;50.874;4.394;2023-04-24T13:23:32;16.80;81.70
23597;DHT22;40226;50.874;4.394;2023-04-24T13:25:58;17.10;1.00
23597;DHT22;40226;50.874;4.394;2023-04-24T13:28:24;17.50;1.00
23597;DHT22;40226;50.874;4.394;2023-04-24T13:30:51;18.70;99.90
23597;DHT22;40226;50.874;4.394;2023-04-24T13:33:16;18.70;99.90
23597;DHT22;40226;50.874;4.394;2023-04-24T13:35:42;18.60;94.90
23597;DHT22;40226;50.874;4.394;2023-04-24T13:38:08;19.40;12.20
23597;DHT22;40226;50.874;4.394;2023-04-24T13:40:33;19.50;1.00
23597;DHT22;40226;50.874;4.394;2023-04-24T13:42:59;18.50;1.00
23597;DHT22;40226;50.874;4.394;2023-04-24T13:45:25;17.80;1.00
23597;DHT22;40226;50.874;4.394;2023-04-24T13:47:51;17.10;1.00
23597;DHT22;40226;50.874;4.394;2023-04-24T13:50:16;16.60;56.60
23597;DHT22;40226;50.874;4.394;2023-04-24T13:52:42;16.70;56.70
23597;DHT22;40226;50.874;4.394;2023-04-24T13:55:08;16.40;99.90
23597;DHT22;40226;50.874;4.394;2023-04-24T13:57:33;16.30;99.90
23597;DHT22;40226;50.874;4.394;2023-04-24T13:59:59;16.60;99.90
23597;DHT22;40226;50.874;4.394;2023-04-24T14:02:27;17.60;99.90
23597;DHT22;40226;50.874;4.394;2023-04-24T14:04:53;18.90;1.00
23597;DHT22;40226;50.874;4.394;2023-04-24T14:07:18;20.00;1.00
23597;DHT22;40226;50.874;4.394;2023-04-24T14:09:44;20.50;1.00
23597;DHT22;40226;50.874;4.394;2023-04-24T14:12:10;21.20;99.90
23597;DHT22;40226;50.874;4.394;2023-04-24T14:14:35;20.40;99.90
23597;DHT22;40226;50.874;4.394;2023-04-24T14:17:01;20.10;99.90
23597;DHT22;40226;50.874;4.394;2023-04-24T14:19:27;20.40;99.90
23597;DHT22;40226;50.874;4.394;2023-04-24T14:21:52;19.90;99.90
23597;DHT22;40226;50.874;4.394;2023-04-24T14:24:19;19.50;99.90
23597;DHT22;40226;50.874;4.394;2023-04-24T14:26:44;18.60;99.90
23597;DHT22;40226;50.874;4.394;2023-04-24T14:29:10;18.00;1.00
23597;DHT22;40226;50.874;4.394;2023-04-24T14:31:36;17.30;1.00
23597;DHT22;40226;50.874;4.394;2023-04-24T14:34:01;16.70;1.00
23597;DHT22;40226;50.874;4.394;2023-04-24T14:36:27;16.10;99.90
23597;DHT22;40226;50.874;4.394;2023-04-24T14:38:53;15.60;1.00
23597;DHT22;40226;50.874;4.394;2023-04-24T14:41:18;15.70;91.60
23597;DHT22;40226;50.874;4.394;2023-04-24T14:43:44;15.80;1.00
23597;DHT22;40226;50.874;4.394;2023-04-24T14:46:10;15.50;99.90
23597;DHT22;40226;50.874;4.394;2023-04-24T14:48:35;15.40;99.90
23597;DHT22;40226;50.874;4.394;2023-04-24T14:51:01;15.20;99.90
23597;DHT22;40226;50.874;4.394;2023-04-24T14:53:26;15.20;99.90
23597;DHT22;40226;50.874;4.394;2023-04-24T14:55:53;15.20;1.00
23597;DHT22;40226;50.874;4.394;2023-04-24T14:58:18;15.00;1.00
23597;DHT22;40226;50.874;4.394;2023-04-24T15:00:44;15.00;2.90
23597;DHT22;40226;50.874;4.394;2023-04-24T15:03:10;14.70;1.00
23597;DHT22;40226;50.874;4.394;2023-04-24T15:05:35;14.80;99.90
23597;DHT22;40226;50.874;4.394;2023-04-24T15:08:01;14.60;1.00
23597;DHT22;40226;50.874;4.394;2023-04-24T15:10:28;14.90;1.00
23597;DHT22;40226;50.874;4.394;2023-04-24T15:12:54;15.50;99.90
23597;DHT22;40226;50.874;4.394;2023-04-24T15:15:20;15.50;1.00
23597;DHT22;40226;50.874;4.394;2023-04-24T15:17:45;15.40;1.00
23597;DHT22;40226;50.874;4.394;2023-04-24T15:20:11;15.50;99.90
23597;DHT22;40226;50.874;4.394;2023-04-24T15:22:37;15.20;99.90
23597;DHT22;40226;50.874;4.394;2023-04-24T15:25:03;15.00;99.90
23597;DHT22;40226;50.874;4.394;2023-04-24T15:27:45;15.20;1.00
23597;DHT22;40226;50.874;4.394;2023-04-24T15:30:11;15.30;1.00
23597;DHT22;40226;50.874;4.394;2023-04-24T15:32:38;15.10;1.00
23597;DHT22;40226;50.874;4.394;2023-04-24T15:35:04;15.20;1.00
23597;DHT22;40226;50.874;4.394;2023-04-24T15:37:30;15.10;1.00
23597;DHT22;40226;50.874;4.394;2023-04-24T15:39:56;15.20;1.00
23597;DHT22;40226;50.874;4.394;2023-04-24T15:42:21;15.10;1.00
23597;DHT22;40226;50.874;4.394;2023-04-24T15:44:47;15.00;1.00